sensor_id;sensor_type;location;lat;lon;timestamp;pressure;altitude;pressure_sealevel;temperature;humidity
65534;BME280;53640;55.838;37.184;2023-12-28T00:01:25;98282.72;;;-3.11;62.41
65534;BME280;53640;55.838;37.184;2023-12-28T00:03:52;98119.59;;;-4.14;62.43
65534;BME280;53640;55.838;37.184;2023-12-28T00:06:18;98138.16;;;-4.06;62.41
65534;BME280;53640;55.838;37.184;2023-12-28T00:08:45;98175.00;;;-3.87;62.15
65534;BME280;53640;55.838;37.184;2023-12-28T00:46:33;98106.03;;;-4.63;63.24
65534;BME280;53640;55.838;37.184;2023-12-28T00:48:59;98249.19;;;-3.80;63.28
65534;BME280;53640;55.838;37.184;2023-12-28T00:51:29;98197.44;;;-4.09;63.02
65534;BME280;53640;55.838;37.184;2023-12-28T00:54:01;98140.72;;;-4.40;63.07
65534;BME280;53640;55.838;37.184;2023-12-28T00:56:32;98249.19;;;-3.80;63.02
65534;BME280;53640;55.838;37.184;2023-12-28T00:58:58;98220.75;;;-3.86;63.04
65534;BME280;53640;55.838;37.184;2023-12-28T01:01:26;98130.09;;;-4.48;62.85
65534;BME280;53640;55.838;37.184;2023-12-28T01:04:03;98186.66;;;-4.15;63.06
65534;BME280;53640;55.838;37.184;2023-12-28T01:06:38;98223.16;;;-3.93;63.30
65534;BME280;53640;55.838;37.184;2023-12-28T01:09:06;98129.78;;;-4.45;62.88
65534;BME280;53640;55.838;37.184;2023-12-28T01:11:36;98091.47;;;-4.67;62.95
65534;BME280;53640;55.838;37.184;2023-12-28T01:14:02;98176.63;;;-4.12;63.17
65534;BME280;53640;55.838;37.184;2023-12-28T01:16:29;98136.13;;;-4.38;62.72
65534;BME280;53640;55.838;37.184;2023-12-28T01:18:55;98215.06;;;-3.91;63.15
65534;BME280;53640;55.838;37.184;2023-12-28T01:21:25;98217.72;;;-3.91;63.19
65534;BME280;53640;55.838;37.184;2023-12-28T01:23:57;98114.88;;;-4.55;63.04
65534;BME280;53640;55.838;37.184;2023-12-28T01:26:24;98232.63;;;-3.90;62.93
65534;BME280;53640;55.838;37.184;2023-12-28T01:28:53;98239.25;;;-3.86;62.83
65534;BME280;53640;55.838;37.184;2023-12-28T01:31:28;98344.38;;;-3.18;63.28
65534;BME280;53640;55.838;37.184;2023-12-28T01:34:12;98294.88;;;-3.52;62.96
65534;BME280;53640;55.838;37.184;2023-12-28T01:38:10;98335.75;;;-3.20;63.01
65534;BME280;53640;55.838;37.184;2023-12-28T01:40:56;98167.56;;;-4.27;62.89
65534;BME280;53640;55.838;37.184;2023-12-28T01:43:25;98130.72;;;-4.55;63.00
65534;BME280;53640;55.838;37.184;2023-12-28T01:45:58;98231.28;;;-3.94;63.08
65534;BME280;53640;55.838;37.184;2023-12-28T01:48:40;98269.56;;;-3.72;62.79
65534;BME280;53640;55.838;37.184;2023-12-28T01:51:16;98167.28;;;-4.42;62.63
65534;BME280;53640;55.838;37.184;2023-12-28T01:53:48;98167.03;;;-4.31;62.67
65534;BME280;53640;55.838;37.184;2023-12-28T01:56:39;98184.19;;;-4.17;62.51
65534;BME280;53640;55.838;37.184;2023-12-28T01:59:16;98247.25;;;-3.96;63.02
65534;BME280;53640;55.838;37.184;2023-12-28T02:01:45;98171.03;;;-4.44;62.78
65534;BME280;53640;55.838;37.184;2023-12-28T02:04:13;98301.16;;;-3.71;62.95
65534;BME280;53640;55.838;37.184;2023-12-28T02:06:45;98212.56;;;-4.19;62.96
65534;BME280;53640;55.838;37.184;2023-12-28T02:09:14;98170.09;;;-4.43;62.88
65534;BME280;53640;55.838;37.184;2023-12-28T02:11:44;98203.44;;;-4.24;62.92
65534;BME280;53640;55.838;37.184;2023-12-28T02:18:19;98201.31;;;-4.39;63.16
65534;BME280;53640;55.838;37.184;2023-12-28T02:21:00;98200.25;;;-4.46;63.09
65534;BME280;53640;55.838;37.184;2023-12-28T02:23:34;98294.47;;;-3.83;63.45
65534;BME280;53640;55.838;37.184;2023-12-28T02:58:54;98232.84;;;-4.55;63.47
65534;BME280;53640;55.838;37.184;2023-12-28T03:01:28;98275.28;;;-4.21;63.37
65534;BME280;53640;55.838;37.184;2023-12-28T04:00:46;98391.13;;;-3.98;63.50
65534;BME280;53640;55.838;37.184;2023-12-28T04:03:32;98277.53;;;-4.71;63.46
65534;BME280;53640;55.838;37.184;2023-12-28T04:09:35;98235.53;;;-5.10;63.34
65534;BME280;53640;55.838;37.184;2023-12-28T04:12:46;98332.97;;;-4.44;63.53
65534;BME280;53640;55.838;37.184;2023-12-28T04:15:50;98454.00;;;-3.74;63.53
65534;BME280;53640;55.838;37.184;2023-12-28T04:18:17;98385.53;;;-4.13;63.55
65534;BME280;53640;55.838;37.184;2023-12-28T04:21:12;98347.56;;;-4.40;63.62
65534;BME280;53640;55.838;37.184;2023-12-28T04:23:43;98379.16;;;-4.20;63.42
65534;BME280;53640;55.838;37.184;2023-12-28T04:26:14;98277.50;;;-4.89;63.34
65534;BME280;53640;55.838;37.184;2023-12-28T04:28:46;98362.88;;;-4.43;63.57
65534;BME280;53640;55.838;37.184;2023-12-28T04:35:02;98380.47;;;-4.34;63.32
65534;BME280;53640;55.838;37.184;2023-12-28T04:37:55;98338.81;;;-4.68;63.50
65534;BME280;53640;55.838;37.184;2023-12-28T04:40:46;98305.25;;;-4.85;63.37
65534;BME280;53640;55.838;37.184;2023-12-28T04:43:17;98289.22;;;-5.02;63.06
65534;BME280;53640;55.838;37.184;2023-12-28T04:45:43;98415.06;;;-4.28;63.11
65534;BME280;53640;55.838;37.184;2023-12-28T04:48:11;98312.78;;;-4.90;63.22
65534;BME280;53640;55.838;37.184;2023-12-28T04:50:51;98299.19;;;-4.95;63.48
65534;BME280;53640;55.838;37.184;2023-12-28T04:53:21;98386.34;;;-4.40;63.32
65534;BME280;53640;55.838;37.184;2023-12-28T04:55:55;98413.81;;;-4.23;63.29
65534;BME280;53640;55.838;37.184;2023-12-28T04:58:23;98396.16;;;-4.33;63.40
65534;BME280;53640;55.838;37.184;2023-12-28T05:00:58;98407.28;;;-4.29;63.15
65534;BME280;53640;55.838;37.184;2023-12-28T05:03:37;98351.03;;;-4.67;63.20
65534;BME280;53640;55.838;37.184;2023-12-28T05:10:10;98343.00;;;-4.75;63.23
65534;BME280;53640;55.838;37.184;2023-12-28T05:12:51;98392.34;;;-4.48;63.13
65534;BME280;53640;55.838;37.184;2023-12-28T05:15:31;98325.31;;;-4.92;63.11
65534;BME280;53640;55.838;37.184;2023-12-28T05:19:00;98330.72;;;-4.94;63.04
65534;BME280;53640;55.838;37.184;2023-12-28T05:22:19;98309.75;;;-4.95;63.42
65534;BME280;53640;55.838;37.184;2023-12-28T05:33:14;98375.56;;;-4.84;63.40
65534;BME280;53640;55.838;37.184;2023-12-28T05:35:56;98345.06;;;-5.06;63.35
65534;BME280;53640;55.838;37.184;2023-12-28T05:39:05;98511.56;;;-3.96;63.67
65534;BME280;53640;55.838;37.184;2023-12-28T05:42:16;98378.47;;;-4.87;63.44
65534;BME280;53640;55.838;37.184;2023-12-28T05:46:27;98466.84;;;-4.44;63.38
65534;BME280;53640;55.838;37.184;2023-12-28T05:50:26;98361.31;;;-5.11;63.49
65534;BME280;53640;55.838;37.184;2023-12-28T05:57:50;98434.41;;;-4.74;63.29
65534;BME280;53640;55.838;37.184;2023-12-28T06:04:07;98359.56;;;-5.39;63.16
65534;BME280;53640;55.838;37.184;2023-12-28T06:06:46;98500.06;;;-4.52;62.95
65534;BME280;53640;55.838;37.184;2023-12-28T06:09:29;98506.19;;;-4.41;63.28
65534;BME280;53640;55.838;37.184;2023-12-28T06:12:23;98381.22;;;-5.26;63.34
65534;BME280;53640;55.838;37.184;2023-12-28T06:15:48;98569.19;;;-3.99;63.40
65534;BME280;53640;55.838;37.184;2023-12-28T06:18:39;98487.34;;;-4.66;62.85
65534;BME280;53640;55.838;37.184;2023-12-28T06:27:11;98440.47;;;-5.11;62.80
65534;BME280;53640;55.838;37.184;2023-12-28T06:29:38;98502.50;;;-4.68;63.03
65534;BME280;53640;55.838;37.184;2023-12-28T06:32:05;98459.91;;;-4.92;63.52
65534;BME280;53640;55.838;37.184;2023-12-28T06:34:31;98424.09;;;-5.14;63.23
65534;BME280;53640;55.838;37.184;2023-12-28T06:36:58;98449.19;;;-4.91;63.05
65534;BME280;53640;55.838;37.184;2023-12-28T06:39:25;98475.69;;;-4.83;63.04
65534;BME280;53640;55.838;37.184;2023-12-28T06:41:54;98509.84;;;-4.62;62.43
65534;BME280;53640;55.838;37.184;2023-12-28T06:44:20;98488.03;;;-4.64;62.77
65534;BME280;53640;55.838;37.184;2023-12-28T06:50:03;98430.88;;;-5.12;63.07
65534;BME280;53640;55.838;37.184;2023-12-28T06:53:23;98469.03;;;-4.96;62.63
65534;BME280;53640;55.838;37.184;2023-12-28T06:55:53;98561.75;;;-4.33;62.94
65534;BME280;53640;55.838;37.184;2023-12-28T06:58:31;98438.78;;;-5.12;62.70
65534;BME280;53640;55.838;37.184;2023-12-28T07:01:21;98536.09;;;-4.50;62.78
65534;BME280;53640;55.838;37.184;2023-12-28T07:04:15;98534.00;;;-4.47;62.92
65534;BME280;53640;55.838;37.184;2023-12-28T07:07:05;98462.22;;;-4.89;62.56
65534;BME280;53640;55.838;37.184;2023-12-28T07:09:59;98490.81;;;-4.75;62.61
65534;BME280;53640;55.838;37.184;2023-12-28T07:12:40;98485.97;;;-4.89;62.67
65534;BME280;53640;55.838;37.184;2023-12-28T07:15:14;98504.84;;;-4.65;63.00
65534;BME280;53640;55.838;37.184;2023-12-28T07:18:20;98495.00;;;-4.72;62.61
65534;BME280;53640;55.838;37.184;2023-12-28T07:20:59;98517.47;;;-4.59;62.62
65534;BME280;53640;55.838;37.184;2023-12-28T07:23:28;98663.94;;;-3.58;62.87
65534;BME280;53640;55.838;37.184;2023-12-28T07:25:59;98570.78;;;-4.16;62.49
65534;BME280;53640;55.838;37.184;2023-12-28T07:28:26;98566.78;;;-4.30;62.42
65534;BME280;53640;55.838;37.184;2023-12-28T07:30:53;98496.94;;;-4.65;61.91
65534;BME280;53640;55.838;37.184;2023-12-28T07:33:25;98540.09;;;-4.37;62.22
65534;BME280;53640;55.838;37.184;2023-12-28T07:35:56;98455.41;;;-4.82;61.90
65534;BME280;53640;55.838;37.184;2023-12-28T07:38:31;98492.63;;;-4.66;62.15
65534;BME280;53640;55.838;37.184;2023-12-28T07:41:06;98591.59;;;-4.04;62.11
65534;BME280;53640;55.838;37.184;2023-12-28T07:43:33;98574.91;;;-4.14;61.70
65534;BME280;53640;55.838;37.184;2023-12-28T07:46:05;98512.72;;;-4.55;61.64
65534;BME280;53640;55.838;37.184;2023-12-28T07:48:34;98685.19;;;-3.40;61.94
65534;BME280;53640;55.838;37.184;2023-12-28T07:51:06;98532.19;;;-4.46;61.83
65534;BME280;53640;55.838;37.184;2023-12-28T07:53:35;98521.91;;;-4.49;62.04
65534;BME280;53640;55.838;37.184;2023-12-28T07:56:07;98593.25;;;-4.03;62.37
65534;BME280;53640;55.838;37.184;2023-12-28T07:58:34;98576.56;;;-4.03;62.18
65534;BME280;53640;55.838;37.184;2023-12-28T08:01:14;98633.25;;;-3.68;62.42
65534;BME280;53640;55.838;37.184;2023-12-28T08:03:41;98645.97;;;-3.54;62.04
65534;BME280;53640;55.838;37.184;2023-12-28T08:06:07;98567.69;;;-4.02;61.35
65534;BME280;53640;55.838;37.184;2023-12-28T08:08:34;98556.03;;;-4.19;61.64
65534;BME280;53640;55.838;37.184;2023-12-28T08:11:01;98668.94;;;-3.55;61.00
65534;BME280;53640;55.838;37.184;2023-12-28T08:13:35;98668.94;;;-3.55;61.54
65534;BME280;53640;55.838;37.184;2023-12-28T08:16:27;98528.41;;;-4.44;61.15
65534;BME280;53640;55.838;37.184;2023-12-28T08:19:52;98553.84;;;-4.33;60.90
65534;BME280;53640;55.838;37.184;2023-12-28T08:22:19;98561.09;;;-4.45;61.12
65534;BME280;53640;55.838;37.184;2023-12-28T08:24:45;98622.03;;;-3.99;61.33
65534;BME280;53640;55.838;37.184;2023-12-28T08:27:12;98551.78;;;-4.39;61.43
65534;BME280;53640;55.838;37.184;2023-12-28T08:29:40;98646.38;;;-3.86;61.30
65534;BME280;53640;55.838;37.184;2023-12-28T08:32:10;98629.13;;;-3.90;61.10
65534;BME280;53640;55.838;37.184;2023-12-28T08:34:37;98654.13;;;-3.75;61.29
65534;BME280;53640;55.838;37.184;2023-12-28T08:37:03;98569.56;;;-4.32;60.57
65534;BME280;53640;55.838;37.184;2023-12-28T08:39:33;98613.44;;;-4.11;61.15
65534;BME280;53640;55.838;37.184;2023-12-28T08:42:00;98756.19;;;-3.35;60.63
65534;BME280;53640;55.838;37.184;2023-12-28T08:44:30;98673.09;;;-3.89;61.06
65534;BME280;53640;55.838;37.184;2023-12-28T08:46:59;98601.13;;;-4.30;61.43
65534;BME280;53640;55.838;37.184;2023-12-28T08:49:26;98666.53;;;-3.95;61.21
65534;BME280;53640;55.838;37.184;2023-12-28T08:51:53;98693.81;;;-3.85;61.20
65534;BME280;53640;55.838;37.184;2023-12-28T08:54:20;98561.53;;;-4.49;61.31
65534;BME280;53640;55.838;37.184;2023-12-28T08:56:46;98690.72;;;-3.70;61.39
65534;BME280;53640;55.838;37.184;2023-12-28T08:59:14;98645.31;;;-4.13;59.82
65534;BME280;53640;55.838;37.184;2023-12-28T09:01:41;98619.88;;;-4.23;60.29
65534;BME280;53640;55.838;37.184;2023-12-28T09:04:07;98685.88;;;-3.85;60.84
65534;BME280;53640;55.838;37.184;2023-12-28T09:06:36;98730.06;;;-3.48;60.69
65534;BME280;53640;55.838;37.184;2023-12-28T09:09:05;98602.22;;;-4.23;61.01
65534;BME280;53640;55.838;37.184;2023-12-28T09:11:32;98584.28;;;-4.29;59.90
65534;BME280;53640;55.838;37.184;2023-12-28T09:13:58;98651.06;;;-3.80;61.24
65534;BME280;53640;55.838;37.184;2023-12-28T09:16:27;98636.56;;;-3.76;60.75
65534;BME280;53640;55.838;37.184;2023-12-28T09:18:54;98634.91;;;-3.77;60.25
65534;BME280;53640;55.838;37.184;2023-12-28T09:21:21;98648.19;;;-3.49;59.64
65534;BME280;53640;55.838;37.184;2023-12-28T09:23:47;98635.84;;;-3.59;58.83
65534;BME280;53640;55.838;37.184;2023-12-28T09:26:15;98715.34;;;-3.23;57.79
65534;BME280;53640;55.838;37.184;2023-12-28T09:28:41;98613.22;;;-3.81;58.65
65534;BME280;53640;55.838;37.184;2023-12-28T09:31:07;98769.88;;;-2.75;58.49
65534;BME280;53640;55.838;37.184;2023-12-28T09:33:42;98693.88;;;-3.20;57.93
65534;BME280;53640;55.838;37.184;2023-12-28T09:36:22;98610.94;;;-3.66;58.60
65534;BME280;53640;55.838;37.184;2023-12-28T09:38:56;98718.75;;;-3.03;58.55
65534;BME280;53640;55.838;37.184;2023-12-28T09:41:43;98781.97;;;-2.63;58.38
65534;BME280;53640;55.838;37.184;2023-12-28T09:44:17;98651.03;;;-3.33;58.02
65534;BME280;53640;55.838;37.184;2023-12-28T09:46:45;98653.31;;;-3.38;58.36
65534;BME280;53640;55.838;37.184;2023-12-28T09:52:24;98639.28;;;-3.48;58.03
65534;BME280;53640;55.838;37.184;2023-12-28T09:55:28;98679.13;;;-3.22;56.91
65534;BME280;53640;55.838;37.184;2023-12-28T09:58:24;98639.84;;;-3.55;57.28
65534;BME280;53640;55.838;37.184;2023-12-28T10:01:34;98699.59;;;-3.24;58.05
65534;BME280;53640;55.838;37.184;2023-12-28T10:04:05;98682.41;;;-3.38;57.10
65534;BME280;53640;55.838;37.184;2023-12-28T10:06:44;98744.03;;;-2.91;57.58
65534;BME280;53640;55.838;37.184;2023-12-28T10:09:29;98609.75;;;-3.81;57.72
65534;BME280;53640;55.838;37.184;2023-12-28T10:12:03;98595.00;;;-3.84;57.81
65534;BME280;53640;55.838;37.184;2023-12-28T10:29:16;98644.13;;;-3.81;57.95
65534;BME280;53640;55.838;37.184;2023-12-28T10:45:11;98611.81;;;-4.22;57.35
65534;BME280;53640;55.838;37.184;2023-12-28T11:00:13;98585.28;;;-4.59;57.00
65534;BME280;53640;55.838;37.184;2023-12-28T11:06:41;98595.84;;;-4.49;56.51
65534;BME280;53640;55.838;37.184;2023-12-28T11:09:24;98688.28;;;-4.01;57.16
65534;BME280;53640;55.838;37.184;2023-12-28T11:12:02;98587.94;;;-4.59;57.32
65534;BME280;53640;55.838;37.184;2023-12-28T11:14:47;98599.19;;;-4.57;57.09
65534;BME280;53640;55.838;37.184;2023-12-28T11:18:23;98607.53;;;-4.42;57.85
65534;BME280;53640;55.838;37.184;2023-12-28T11:21:28;98605.00;;;-4.44;57.98
65534;BME280;53640;55.838;37.184;2023-12-28T11:24:03;98685.59;;;-3.91;56.29
65534;BME280;53640;55.838;37.184;2023-12-28T11:26:35;98622.53;;;-4.33;55.17
65534;BME280;53640;55.838;37.184;2023-12-28T11:29:05;98653.94;;;-4.30;54.57
65534;BME280;53640;55.838;37.184;2023-12-28T11:31:35;98775.69;;;-3.46;54.25
65534;BME280;53640;55.838;37.184;2023-12-28T11:34:04;98615.59;;;-4.73;54.54
65534;BME280;53640;55.838;37.184;2023-12-28T11:36:46;98598.06;;;-4.93;54.15
65534;BME280;53640;55.838;37.184;2023-12-28T11:39:24;98621.97;;;-4.85;54.45
65534;BME280;53640;55.838;37.184;2023-12-28T11:41:59;98655.88;;;-4.71;54.13
65534;BME280;53640;55.838;37.184;2023-12-28T11:44:31;98619.78;;;-4.80;53.66
65534;BME280;53640;55.838;37.184;2023-12-28T11:46:59;98653.69;;;-4.66;54.94
65534;BME280;53640;55.838;37.184;2023-12-28T11:49:26;98721.81;;;-4.31;54.93
65534;BME280;53640;55.838;37.184;2023-12-28T11:51:57;98589.03;;;-5.01;54.92
65534;BME280;53640;55.838;37.184;2023-12-28T11:54:25;98603.22;;;-4.82;54.31
65534;BME280;53640;55.838;37.184;2023-12-28T11:56:58;98673.28;;;-4.49;54.19
65534;BME280;53640;55.838;37.184;2023-12-28T11:59:27;98690.94;;;-4.40;54.06
65534;BME280;53640;55.838;37.184;2023-12-28T12:01:54;98696.22;;;-4.20;53.88
65534;BME280;53640;55.838;37.184;2023-12-28T12:04:21;98677.88;;;-4.41;54.07
65534;BME280;53640;55.838;37.184;2023-12-28T12:06:48;98703.72;;;-4.25;52.95
65534;BME280;53640;55.838;37.184;2023-12-28T12:09:17;98634.22;;;-4.65;53.18
65534;BME280;53640;55.838;37.184;2023-12-28T12:11:49;98653.53;;;-4.64;52.51
65534;BME280;53640;55.838;37.184;2023-12-28T12:14:19;98647.00;;;-4.80;52.86
65534;BME280;53640;55.838;37.184;2023-12-28T12:16:50;98812.09;;;-3.87;52.94
65534;BME280;53640;55.838;37.184;2023-12-28T12:19:57;98719.84;;;-4.48;52.94
65534;BME280;53640;55.838;37.184;2023-12-28T12:22:28;98730.53;;;-4.59;52.21
65534;BME280;53640;55.838;37.184;2023-12-28T12:24:56;98647.78;;;-5.18;52.77
65534;BME280;53640;55.838;37.184;2023-12-28T12:27:26;98759.56;;;-4.69;53.01
65534;BME280;53640;55.838;37.184;2023-12-28T12:29:53;98719.63;;;-4.95;53.55
65534;BME280;53640;55.838;37.184;2023-12-28T12:32:27;98711.66;;;-5.05;53.87
65534;BME280;53640;55.838;37.184;2023-12-28T12:34:54;98651.59;;;-5.41;53.38
65534;BME280;53640;55.838;37.184;2023-12-28T12:37:31;98764.78;;;-4.88;53.46
65534;BME280;53640;55.838;37.184;2023-12-28T12:40:00;98673.31;;;-5.49;54.12
65534;BME280;53640;55.838;37.184;2023-12-28T12:42:31;98734.00;;;-5.18;54.40
65534;BME280;53640;55.838;37.184;2023-12-28T12:45:11;98682.09;;;-5.48;54.03
65534;BME280;53640;55.838;37.184;2023-12-28T12:47:43;98699.06;;;-5.41;54.24
65534;BME280;53640;55.838;37.184;2023-12-28T12:50:13;98731.94;;;-5.15;54.56
65534;BME280;53640;55.838;37.184;2023-12-28T12:52:51;98675.69;;;-5.56;54.47
65534;BME280;53640;55.838;37.184;2023-12-28T12:55:30;98671.09;;;-5.54;54.75
65534;BME280;53640;55.838;37.184;2023-12-28T12:58:05;98755.59;;;-5.04;54.36
65534;BME280;53640;55.838;37.184;2023-12-28T13:00:42;98691.50;;;-5.56;54.51
65534;BME280;53640;55.838;37.184;2023-12-28T13:03:32;98741.44;;;-5.33;54.26
65534;BME280;53640;55.838;37.184;2023-12-28T13:06:02;98789.59;;;-5.01;54.57
65534;BME280;53640;55.838;37.184;2023-12-28T13:08:41;98793.22;;;-5.02;54.86
65534;BME280;53640;55.838;37.184;2023-12-28T13:11:10;98728.75;;;-5.39;55.08
65534;BME280;53640;55.838;37.184;2023-12-28T13:13:37;98755.47;;;-5.23;55.12
65534;BME280;53640;55.838;37.184;2023-12-28T13:16:05;98710.53;;;-5.52;54.78
65534;BME280;53640;55.838;37.184;2023-12-28T13:18:32;98764.53;;;-5.16;55.38
65534;BME280;53640;55.838;37.184;2023-12-28T13:21:29;98874.56;;;-4.45;55.32
65534;BME280;53640;55.838;37.184;2023-12-28T13:24:38;98798.66;;;-4.93;55.60
65534;BME280;53640;55.838;37.184;2023-12-28T13:27:14;98782.81;;;-5.03;55.52
65534;BME280;53640;55.838;37.184;2023-12-28T13:30:06;98704.78;;;-5.57;55.00
65534;BME280;53640;55.838;37.184;2023-12-28T13:32:57;98784.28;;;-5.10;55.22
65534;BME280;53640;55.838;37.184;2023-12-28T13:39:28;98766.56;;;-5.29;54.68
65534;BME280;53640;55.838;37.184;2023-12-28T13:42:58;98687.28;;;-5.89;54.35
65534;BME280;53640;55.838;37.184;2023-12-28T13:54:59;98761.91;;;-5.67;55.17
65534;BME280;53640;55.838;37.184;2023-12-28T13:58:30;98693.28;;;-6.08;55.43
65534;BME280;53640;55.838;37.184;2023-12-28T14:01:57;98771.16;;;-5.73;54.73
65534;BME280;53640;55.838;37.184;2023-12-28T14:05:19;98782.47;;;-5.61;55.32
65534;BME280;53640;55.838;37.184;2023-12-28T14:08:34;98674.91;;;-6.19;54.20
65534;BME280;53640;55.838;37.184;2023-12-28T14:12:04;98836.91;;;-5.09;54.49
65534;BME280;53640;55.838;37.184;2023-12-28T14:15:05;98706.72;;;-5.90;54.80
65534;BME280;53640;55.838;37.184;2023-12-28T14:18:22;98714.78;;;-5.82;54.65
65534;BME280;53640;55.838;37.184;2023-12-28T14:21:43;98750.06;;;-5.73;53.44
65534;BME280;53640;55.838;37.184;2023-12-28T14:24:49;98715.56;;;-5.91;53.81
65534;BME280;53640;55.838;37.184;2023-12-28T14:31:00;98884.59;;;-4.80;54.41
65534;BME280;53640;55.838;37.184;2023-12-28T14:33:59;98753.72;;;-5.43;54.72
65534;BME280;53640;55.838;37.184;2023-12-28T14:40:56;98735.00;;;-5.40;55.25
65534;BME280;53640;55.838;37.184;2023-12-28T14:44:03;98768.06;;;-5.06;55.38
65534;BME280;53640;55.838;37.184;2023-12-28T14:46:57;98658.34;;;-5.79;55.60
65534;BME280;53640;55.838;37.184;2023-12-28T14:49:23;98682.56;;;-5.64;55.33
65534;BME280;53640;55.838;37.184;2023-12-28T14:52:29;98752.88;;;-5.13;55.81
65534;BME280;53640;55.838;37.184;2023-12-28T14:55:26;98753.41;;;-5.19;55.78
65534;BME280;53640;55.838;37.184;2023-12-28T14:58:15;98673.03;;;-5.56;55.68
65534;BME280;53640;55.838;37.184;2023-12-28T15:01:53;98705.28;;;-5.42;55.42
65534;BME280;53640;55.838;37.184;2023-12-28T15:04:25;98727.59;;;-5.16;56.00
65534;BME280;53640;55.838;37.184;2023-12-28T15:07:19;98783.28;;;-4.79;55.92
65534;BME280;53640;55.838;37.184;2023-12-28T15:10:08;98769.63;;;-4.93;56.14
65534;BME280;53640;55.838;37.184;2023-12-28T15:12:45;98656.09;;;-5.53;55.97
65534;BME280;53640;55.838;37.184;2023-12-28T15:15:14;98644.81;;;-5.65;56.18
65534;BME280;53640;55.838;37.184;2023-12-28T15:17:44;98653.22;;;-5.50;56.40
65534;BME280;53640;55.838;37.184;2023-12-28T15:20:24;98646.09;;;-5.59;56.25
65534;BME280;53640;55.838;37.184;2023-12-28T15:23:42;98641.25;;;-5.54;56.29
65534;BME280;53640;55.838;37.184;2023-12-28T15:26:44;98704.16;;;-5.09;56.35
65534;BME280;53640;55.838;37.184;2023-12-28T15:29:29;98682.28;;;-5.31;56.23
65534;BME280;53640;55.838;37.184;2023-12-28T15:32:45;98637.38;;;-5.60;56.24
65534;BME280;53640;55.838;37.184;2023-12-28T15:35:37;98805.91;;;-4.45;56.48
65534;BME280;53640;55.838;37.184;2023-12-28T15:38:05;98666.59;;;-5.32;56.79
65534;BME280;53640;55.838;37.184;2023-12-28T15:40:31;98734.47;;;-4.94;56.42
65534;BME280;53640;55.838;37.184;2023-12-28T15:42:59;98666.28;;;-5.39;56.73
65534;BME280;53640;55.838;37.184;2023-12-28T15:45:26;98713.34;;;-5.04;56.76
65534;BME280;53640;55.838;37.184;2023-12-28T15:47:58;98705.53;;;-5.15;56.79
65534;BME280;53640;55.838;37.184;2023-12-28T15:50:24;98628.34;;;-5.57;57.11
65534;BME280;53640;55.838;37.184;2023-12-28T15:52:51;98679.06;;;-5.34;57.28
65534;BME280;53640;55.838;37.184;2023-12-28T15:55:17;98695.66;;;-5.22;57.19
65534;BME280;53640;55.838;37.184;2023-12-28T15:57:59;98636.06;;;-5.65;57.38
65534;BME280;53640;55.838;37.184;2023-12-28T16:00:26;98755.75;;;-4.86;57.27
65534;BME280;53640;55.838;37.184;2023-12-28T16:02:56;98626.38;;;-5.65;57.18
65534;BME280;53640;55.838;37.184;2023-12-28T16:05:53;98671.97;;;-5.43;57.55
65534;BME280;53640;55.838;37.184;2023-12-28T16:08:55;98742.19;;;-5.12;57.34
65534;BME280;53640;55.838;37.184;2023-12-28T16:20:23;98612.78;;;-5.91;57.88
65534;BME280;53640;55.838;37.184;2023-12-28T16:28:00;98800.94;;;-4.79;57.43
65534;BME280;53640;55.838;37.184;2023-12-28T16:31:44;98620.59;;;-5.89;57.28
65534;BME280;53640;55.838;37.184;2023-12-28T16:35:04;98619.28;;;-5.95;56.84
65534;BME280;53640;55.838;37.184;2023-12-28T16:38:05;98718.38;;;-5.31;55.98
65534;BME280;53640;55.838;37.184;2023-12-28T16:40:38;98592.34;;;-6.08;56.51
65534;BME280;53640;55.838;37.184;2023-12-28T16:43:19;98623.53;;;-5.83;56.95
65534;BME280;53640;55.838;37.184;2023-12-28T16:46:09;98672.31;;;-5.58;56.37
65534;BME280;53640;55.838;37.184;2023-12-28T16:48:39;98599.19;;;-5.96;56.49
65534;BME280;53640;55.838;37.184;2023-12-28T16:51:35;98620.91;;;-5.83;56.38
65534;BME280;53640;55.838;37.184;2023-12-28T16:54:10;98680.28;;;-5.48;56.37
65534;BME280;53640;55.838;37.184;2023-12-28T16:57:05;98645.22;;;-5.69;55.20
65534;BME280;53640;55.838;37.184;2023-12-28T17:00:12;98798.44;;;-4.81;56.08
65534;BME280;53640;55.838;37.184;2023-12-28T17:03:07;98604.72;;;-5.99;56.20
65534;BME280;53640;55.838;37.184;2023-12-28T17:09:47;98796.19;;;-4.85;56.45
65534;BME280;53640;55.838;37.184;2023-12-28T17:20:50;98635.63;;;-6.01;56.22
65534;BME280;53640;55.838;37.184;2023-12-28T17:31:38;98801.13;;;-5.02;56.34
65534;BME280;53640;55.838;37.184;2023-12-28T17:44:43;98789.41;;;-5.18;56.61
65534;BME280;53640;55.838;37.184;2023-12-28T17:48:34;98598.84;;;-6.33;56.24
65534;BME280;53640;55.838;37.184;2023-12-28T17:51:16;98580.63;;;-6.46;55.78
65534;BME280;53640;55.838;37.184;2023-12-28T18:02:50;98592.88;;;-6.35;55.57
65534;BME280;53640;55.838;37.184;2023-12-28T18:06:40;98770.03;;;-5.29;55.38
65534;BME280;53640;55.838;37.184;2023-12-28T18:09:43;98547.13;;;-6.65;55.36
65534;BME280;53640;55.838;37.184;2023-12-28T18:12:36;98575.66;;;-6.39;55.72
65534;BME280;53640;55.838;37.184;2023-12-28T18:16:25;98634.78;;;-6.02;56.07
65534;BME280;53640;55.838;37.184;2023-12-28T18:34:02;98554.56;;;-6.18;56.38
65534;BME280;53640;55.838;37.184;2023-12-28T18:36:29;98606.34;;;-5.77;56.45
65534;BME280;53640;55.838;37.184;2023-12-28T18:38:57;98538.06;;;-6.20;56.71
65534;BME280;53640;55.838;37.184;2023-12-28T18:41:24;98636.91;;;-5.65;56.80
65534;BME280;53640;55.838;37.184;2023-12-28T18:43:50;98543.13;;;-6.08;56.63
65534;BME280;53640;55.838;37.184;2023-12-28T18:46:17;98520.66;;;-6.12;56.52
65534;BME280;53640;55.838;37.184;2023-12-28T18:48:43;98597.81;;;-5.60;56.37
65534;BME280;53640;55.838;37.184;2023-12-28T18:51:10;98728.41;;;-4.85;56.54
65534;BME280;53640;55.838;37.184;2023-12-28T18:53:37;98734.25;;;-4.81;56.26
65534;BME280;53640;55.838;37.184;2023-12-28T18:56:04;98516.91;;;-6.09;56.56
65534;BME280;53640;55.838;37.184;2023-12-28T18:58:33;98559.31;;;-5.82;56.22
65534;BME280;53640;55.838;37.184;2023-12-28T19:01:03;98607.25;;;-5.57;56.18
65534;BME280;53640;55.838;37.184;2023-12-28T19:03:49;98505.09;;;-6.15;56.16